• Join FlightAware (Why Join?)
  • Login
  • US Flag 
03:26PM EDT


 

Airport Tracker/Info


-or-


 

Live Flight TrackerFlight Track Log ✈ GJS3649 ✈ 09-Jul-2013 ✈ KIAD - KMSP

Flight Track Log - Related Links

Times and Time Zones

All times are in EDT time to prevent confusion due to time zone crossing. See the GJS3649 flight status page for this flight to view local times or setup timezone preferences in your user account.

Time Position Orientation Groundspeed Altitude Reporting Facility
EDT Latitude Longitude Course Direction KTS MPH feet Rate Location/Type
05:02PM 38.8333 -77.4833 191° South 248 285 4,400  Level Potomac TRACON
05:04PM 38.6692 -77.4847 180° South 292 336 9,100 1,740 Climbing Washington Center
05:05PM 38.6283 -77.5608 236° Southwest 249 287 9,900 660 Climbing Washington Center
05:06PM 38.6558 -77.6572 290° West 223 257 10,500 1,140 Climbing Washington Center
05:07PM 38.6917 -77.7619 294° West 267 307 12,200 1,560 Climbing Washington Center
05:08PM 38.7275 -77.8561 296° West 295 339 13,700 1,620 Climbing Washington Center
05:09PM 38.7689 -77.9694 295° West 326 375 15,500 1,800 Climbing Washington Center
05:10PM 38.8103 -78.0878 294° West 347 399 17,300 1,620 Climbing Washington Center
05:11PM 38.8497 -78.2039 294° West 353 406 18,800 1,380 Climbing Washington Center
05:12PM 38.8528 -78.3400 272° West 366 421 20,200 1,260 Climbing Washington Center
05:13PM 38.8517 -78.4758 269° West 376 433 21,400 1,080 Climbing Washington Center
05:14PM 38.8503 -78.6197 269° West 394 453 22,400 960 Climbing Washington Center
05:15PM 38.8486 -78.7689 269° West 410 472 23,400 1,080 Climbing Washington Center
05:16PM 38.8444 -78.9153 268° West 416 479 24,600 1,140 Climbing Washington Center
05:17PM 38.8422 -79.0672 269° West 421 484 25,700 1,020 Climbing Washington Center
05:18PM 38.8400 -79.2192 269° West 421 484 26,700 960 Climbing Washington Center
05:19PM 38.8186 -79.3672 260° West 421 484 27,700 840 Climbing Washington Center
05:20PM 38.8003 -79.4889 259° West 426 490 28,500 1,560 Climbing Washington Center
05:21PM 38.7733 -79.6739 259° West 434 499 30,800 1,740 Climbing Washington Center
05:22PM 38.7494 -79.8161 258° West 427 491 32,000 840 Climbing Washington Center
05:23PM 38.7269 -79.9772 260° West 422 486 32,600 540 Climbing Washington Center
05:24PM 38.7133 -80.1256 263° West 429 494 33,100 540 Climbing Washington Center
05:25PM 38.7172 -80.3467 271° West 435 501 34,000 600 Climbing Indianapolis Center
05:26PM 38.7214 -80.5028 272° West 438 504 34,600 540 Climbing Indianapolis Center
05:27PM 38.7242 -80.6611 271° West 444 511 35,200 720 Climbing Indianapolis Center
05:28PM 38.7144 -80.8189 266° West 445 512 36,100 900 Climbing Indianapolis Center
05:29PM 38.7083 -80.9744 267° West 438 504 37,100 780 Climbing Indianapolis Center
05:30PM 38.7069 -81.1264 269° West 429 494 37,800 420 Climbing Indianapolis Center
05:31PM 38.7067 -81.2794 270° West 431 496 38,000 60 Climbing Indianapolis Center
05:32PM 38.7050 -81.4692 269° West 438 504 38,000  Level Indianapolis Center
05:34PM 38.7044 -81.6236 270° West 434 499 38,000  Level Indianapolis Center
05:35PM 38.7031 -81.7583 269° West 428 493 38,000  Level Indianapolis Center
05:36PM 38.7014 -81.9072 269° West 422 486 38,000  Level Indianapolis Center
05:37PM 38.6986 -82.0864 269° West 420 483 38,000  Level Indianapolis Center
05:38PM 38.6961 -82.2375 269° West 424 488 38,000  Level Indianapolis Center
05:39PM 38.6956 -82.3919 270° West 432 497 38,000  Level Indianapolis Center
05:40PM 38.6922 -82.5478 268° West 437 503 38,000  Level Indianapolis Center
05:41PM 38.6906 -82.7025 269° West 436 502 38,000  Level Indianapolis Center
05:42PM 38.6875 -82.8586 269° West 439 505 38,000  Level Indianapolis Center
05:43PM 38.6839 -83.0131 268° West 436 502 38,000  Level Indianapolis Center
05:44PM 38.6803 -83.1778 268° West 440 506 38,000  Level Indianapolis Center
05:45PM 38.6756 -83.3636 268° West 443 510 38,000  Level Indianapolis Center
05:46PM 38.6717 -83.5253 268° West 448 516 38,000  Level Indianapolis Center
05:47PM 38.6681 -83.6872 268° West 449 517 38,000  Level Indianapolis Center
05:48PM 38.6631 -83.8483 268° West 449 517 38,000  Level Indianapolis Center
05:49PM 38.6581 -84.0100 268° West 450 518 38,000  Level Indianapolis Center
05:50PM 38.6528 -84.1728 268° West 454 522 38,000  Level Indianapolis Center
05:51PM 38.6717 -84.3281 279° West 443 510 38,000  Level Indianapolis Center
05:52PM 38.7358 -84.4572 303° West 429 494 38,000  Level Indianapolis Center
05:53PM 38.8192 -84.6000 307° West 438 504 38,000  Level Indianapolis Center
05:54PM 38.8886 -84.7267 305° West 437 503 38,000  Level Indianapolis Center
05:55PM 38.9383 -84.8833 292° West 443 510 38,000  Level Indianapolis Center
05:56PM 38.9842 -85.0136 294° West 434 499 38,000  Level Indianapolis Center
05:57PM 39.0361 -85.1522 296° West 433 498 38,000  Level Indianapolis Center
05:58PM 39.1150 -85.2986 305° West 416 479 38,000  Level Indianapolis Center
05:59PM 39.1925 -85.4119 311° West 422 486 38,000  Level Indianapolis Center
06:00PM 39.2689 -85.5294 310° West 425 489 38,000  Level Indianapolis Center
06:01PM 39.3461 -85.6461 311° West 430 495 38,000  Level Indianapolis Center
06:02PM 39.4236 -85.7631 311° West 429 494 38,000  Level Indianapolis Center
06:03PM 39.4994 -85.8800 310° West 428 493 38,000  Level Indianapolis Center
06:04PM 39.6100 -85.9908 322° Northwest 426 490 38,000  Level Indianapolis Center
06:05PM 39.7158 -86.0558 335° Northwest 428 493 38,000  Level Indianapolis Center
06:07PM 39.8242 -86.1200 336° Northwest 438 504 38,000  Level Indianapolis Center
06:08PM 39.9325 -86.1903 334° Northwest 444 511 38,000  Level Indianapolis Center
06:09PM 40.0642 -86.2728 334° Northwest 444 511 38,000  Level Indianapolis Center
06:10PM 40.1758 -86.3425 334° Northwest 446 513 38,000  Level Indianapolis Center
06:11PM 40.2864 -86.4131 334° Northwest 446 513 38,000  Level Indianapolis Center
06:12PM 40.3978 -86.4831 334° Northwest 447 514 38,000  Level Indianapolis Center
06:13PM 40.5089 -86.5533 334° Northwest 446 513 38,000  Level Indianapolis Center
06:14PM 40.6211 -86.6247 334° Northwest 447 514 38,000  Level Indianapolis Center
06:15PM 40.7556 -86.7108 334° Northwest 450 518 38,000  Level Indianapolis Center
06:16PM 40.8683 -86.7817 335° Northwest 449 517 38,000  Level Indianapolis Center
06:17PM 40.9803 -86.8533 334° Northwest 448 516 38,000  Level Indianapolis Center
06:18PM 41.0919 -86.9258 334° Northwest 449 517 38,000  Level Indianapolis Center
06:19PM 41.2044 -86.9989 334° Northwest 450 518 38,000  Level Indianapolis Center
06:20PM 41.3892 -87.1078 336° Northwest 445 512 38,000  Level Chicago Center
06:21PM 41.5100 -87.1472 346° North 450 518 38,000  Level Chicago Center
06:22PM 41.6314 -87.1892 346° North 454 522 38,000  Level Chicago Center
06:24PM 41.7508 -87.2322 345° North 450 518 38,000  Level Chicago Center
06:25PM 41.8694 -87.2750 345° North 448 516 38,000  Level Chicago Center
06:26PM 42.0153 -87.3194 347° North 450 518 38,000  Level Chicago Center
06:27PM 42.1289 -87.3644 344° North 438 504 38,000  Level Chicago Center
06:28PM 42.2275 -87.4564 325° Northwest 435 501 38,000  Level Chicago Center
06:29PM 42.3264 -87.5456 326° Northwest 433 498 38,000  Level Chicago Center
06:30PM 42.4411 -87.6514 326° Northwest 423 487 38,000  Level Chicago Center
06:31PM 42.5378 -87.7425 325° Northwest 427 491 38,000  Level Chicago Center
06:32PM 42.6369 -87.8347 326° Northwest 436 502 38,000  Level Chicago Center
06:33PM 42.7394 -87.9297 326° Northwest 445 512 38,000  Level Chicago Center
06:34PM 42.8403 -88.0244 325° Northwest 442 509 38,000  Level Chicago Center
06:35PM 42.9575 -88.1342 326° Northwest 438 504 38,000  Level Chicago Center
06:36PM 43.0572 -88.2300 325° Northwest 437 503 38,000  Level Chicago Center
06:37PM 43.1450 -88.3394 318° Northwest 437 503 38,000  Level Chicago Center
06:38PM 43.2219 -88.4669 310° West 434 499 38,000  Level Chicago Center
06:39PM 43.2964 -88.5969 308° West 429 494 38,000  Level Chicago Center
06:40PM 43.3728 -88.7278 309° West 432 497 38,000  Level Chicago Center
06:41PM 43.4486 -88.8544 310° West 425 489 38,000 -180 Level Chicago Center
06:42PM 43.5225 -88.9822 309° West 424 488 37,700 -780 Descending Chicago Center
06:43PM 43.6092 -89.1331 308° West 427 491 36,500 -1,080 Descending Chicago Center
06:44PM 43.6822 -89.2608 308° West 425 489 35,500 -1,020 Descending Chicago Center
06:45PM 43.7553 -89.3881 309° West 423 487 34,500 -780 Descending Chicago Center
06:46PM 43.8258 -89.5150 308° West 417 480 34,000 -300 Descending Chicago Center
06:47PM 43.8997 -89.6439 309° West 422 486 34,000  Level Chicago Center
06:48PM 43.9733 -89.7753 308° West 428 493 34,000  Level Chicago Center
06:49PM 44.0583 -89.9283 308° West 428 493 34,000  Level Chicago Center
06:50PM 44.1308 -90.0578 308° West 424 488 34,000  Level Chicago Center
06:51PM 44.2031 -90.1875 308° West 425 489 34,000  Level Chicago Center
06:52PM 44.2786 -90.3269 307° West 426 490 34,000  Level Chicago Center
06:53PM 44.3472 -90.4583 306° West 424 488 34,000 -300 Level Chicago Center
06:54PM 44.3922 -90.6069 293° West 418 481 33,400 -1,020 Descending Chicago Center
06:56PM 44.4350 -90.7542 292° West 416 479 31,900 -1,620 Descending Chicago Center
06:57PM 44.4886 -90.9331 293° West 419 482 30,100 -1,620 Descending Chicago Center
06:58PM 44.5289 -91.0750 292° West 398 458 28,600 -1,440 Descending Chicago Center
06:59PM 44.5667 -91.2050 292° West 370 426 27,200 -1,740 Descending Chicago Center
07:00PM 44.6094 -91.3522 292° West 360 414 24,700 -2,340 Descending Minneapolis Center
07:01PM 44.6544 -91.5092 292° West 361 415 21,900 -2,460 Descending Minneapolis Center
07:02PM 44.6933 -91.6408 293° West 365 420 19,600 -2,280 Descending Minneapolis Center
07:03PM 44.7286 -91.7653 292° West 353 406 17,200 -2,280 Descending Minneapolis Center
07:04PM 44.7603 -91.8831 291° West 332 382 15,000 -2,220 Descending Minneapolis Center
07:05PM 44.7914 -91.9900 292° West 301 346 12,700 -1,740 Descending Minneapolis Center
07:06PM 44.8275 -92.1189 292° West 295 339 11,500 -1,080 Descending Minneapolis Center
07:07PM 44.8578 -92.2264 292° West 296 341 10,500 -780 Descending Minneapolis Center
07:08PM 44.8744 -92.3364 282° West 293 337 10,000 -480 Descending Minneapolis Center
07:09PM 44.8325 -92.4308 238° Southwest 279 321 9,600 -540 Descending Minneapolis Center
07:10PM 44.7917 -92.5186 237° Southwest 270 311 9,000 -360 Descending Minneapolis Center
07:11PM 44.7417 -92.6247 236° Southwest 272 313 8,800 -900 Descending Minneapolis Center
07:12PM 44.7181 -92.7419 254° West 262 302 7,000 -1,020 Descending Minneapolis Center
07:14PM 44.7172 -92.8389 269° West 249 287 6,800 -780 Descending Minneapolis Center
07:15PM 44.7453 -92.9067 300° West 201 231 5,500 -1,080 Descending Minneapolis Center
07:16PM 44.7739 -92.9739 301° West 202 232 4,600 -960 Descending Minneapolis Center
07:17PM 44.8033 -93.0397 302° West 201 231 3,600 -1,080 Descending Minneapolis Center
07:18PM 44.8306 -93.1022 302° West 157 181 2,400 -900 Descending Minneapolis Center
07:19PM 44.8483 -93.1428 302° West 125 144 1,800 -660 Descending Minneapolis Center
07:20PM 44.8667 -93.1856 301° West 129 148 1,100 -720 Descending Minneapolis Center
07:22PM 44.8667 -93.2167 270° West  Level FlightAware Approximate
07:29PM 44.8820 -93.2218 270° West  Level Estimated